sensor_id;sensor_type;location;lat;lon;timestamp;temperature;humidity
41344;DHT22;27089;50.022;7.604;2022-07-29T00:00:56;19.00;99.90
41344;DHT22;27089;50.022;7.604;2022-07-29T00:03:23;19.00;99.90
41344;DHT22;27089;50.022;7.604;2022-07-29T00:05:51;19.00;99.90
41344;DHT22;27089;50.022;7.604;2022-07-29T00:08:19;19.00;99.90
41344;DHT22;27089;50.022;7.604;2022-07-29T00:10:46;19.00;99.90
41344;DHT22;27089;50.022;7.604;2022-07-29T00:13:13;19.00;99.90
41344;DHT22;27089;50.022;7.604;2022-07-29T00:15:40;18.90;99.90
41344;DHT22;27089;50.022;7.604;2022-07-29T00:18:07;18.90;99.90
41344;DHT22;27089;50.022;7.604;2022-07-29T00:20:34;18.80;99.90
41344;DHT22;27089;50.022;7.604;2022-07-29T00:23:02;18.80;99.90
41344;DHT22;27089;50.022;7.604;2022-07-29T00:25:29;18.80;99.90
41344;DHT22;27089;50.022;7.604;2022-07-29T00:27:56;18.70;99.90
41344;DHT22;27089;50.022;7.604;2022-07-29T00:30:23;18.70;99.90
41344;DHT22;27089;50.022;7.604;2022-07-29T00:32:50;18.70;99.90
41344;DHT22;27089;50.022;7.604;2022-07-29T00:35:17;18.60;99.90
41344;DHT22;27089;50.022;7.604;2022-07-29T00:38:03;18.50;99.90
41344;DHT22;27089;50.022;7.604;2022-07-29T00:40:30;18.40;99.90
41344;DHT22;27089;50.022;7.604;2022-07-29T00:42:57;18.30;99.90
41344;DHT22;27089;50.022;7.604;2022-07-29T00:45:24;18.30;99.90
41344;DHT22;27089;50.022;7.604;2022-07-29T00:47:51;18.20;99.90
41344;DHT22;27089;50.022;7.604;2022-07-29T00:50:18;18.20;99.90
41344;DHT22;27089;50.022;7.604;2022-07-29T00:52:45;18.10;99.90
41344;DHT22;27089;50.022;7.604;2022-07-29T00:55:15;18.10;99.90
41344;DHT22;27089;50.022;7.604;2022-07-29T00:57:43;18.00;99.90
41344;DHT22;27089;50.022;7.604;2022-07-29T01:00:13;17.90;99.90
41344;DHT22;27089;50.022;7.604;2022-07-29T01:02:40;17.90;99.90
41344;DHT22;27089;50.022;7.604;2022-07-29T01:05:07;17.80;99.90
41344;DHT22;27089;50.022;7.604;2022-07-29T01:07:35;17.90;99.90
41344;DHT22;27089;50.022;7.604;2022-07-29T01:10:03;17.90;99.90
41344;DHT22;27089;50.022;7.604;2022-07-29T01:12:33;17.90;99.90
41344;DHT22;27089;50.022;7.604;2022-07-29T01:15:05;17.90;99.90
41344;DHT22;27089;50.022;7.604;2022-07-29T01:17:37;17.70;99.90
41344;DHT22;27089;50.022;7.604;2022-07-29T01:20:10;17.60;99.90
41344;DHT22;27089;50.022;7.604;2022-07-29T01:23:07;17.60;99.90
41344;DHT22;27089;50.022;7.604;2022-07-29T01:28:56;17.60;99.90
41344;DHT22;27089;50.022;7.604;2022-07-29T01:31:31;17.60;99.90
41344;DHT22;27089;50.022;7.604;2022-07-29T01:34:03;17.50;99.90
41344;DHT22;27089;50.022;7.604;2022-07-29T01:36:33;17.50;99.90
41344;DHT22;27089;50.022;7.604;2022-07-29T01:39:05;17.40;99.90
41344;DHT22;27089;50.022;7.604;2022-07-29T01:41:34;17.30;99.90
41344;DHT22;27089;50.022;7.604;2022-07-29T01:44:12;17.20;99.90
41344;DHT22;27089;50.022;7.604;2022-07-29T01:46:44;17.00;99.90
41344;DHT22;27089;50.022;7.604;2022-07-29T01:49:20;16.80;99.90
41344;DHT22;27089;50.022;7.604;2022-07-29T01:51:52;16.70;99.90
41344;DHT22;27089;50.022;7.604;2022-07-29T01:54:26;16.70;99.90
41344;DHT22;27089;50.022;7.604;2022-07-29T01:56:56;16.70;99.90
41344;DHT22;27089;50.022;7.604;2022-07-29T01:59:26;16.80;99.90
41344;DHT22;27089;50.022;7.604;2022-07-29T02:01:57;16.80;99.90
41344;DHT22;27089;50.022;7.604;2022-07-29T02:04:26;17.00;99.90
41344;DHT22;27089;50.022;7.604;2022-07-29T02:06:58;17.00;99.90
41344;DHT22;27089;50.022;7.604;2022-07-29T02:09:28;17.10;99.90
41344;DHT22;27089;50.022;7.604;2022-07-29T02:11:56;17.20;99.90
41344;DHT22;27089;50.022;7.604;2022-07-29T02:14:27;17.20;99.90
41344;DHT22;27089;50.022;7.604;2022-07-29T02:16:56;17.30;99.90
41344;DHT22;27089;50.022;7.604;2022-07-29T02:19:26;17.30;99.90
41344;DHT22;27089;50.022;7.604;2022-07-29T02:21:56;17.20;99.90
41344;DHT22;27089;50.022;7.604;2022-07-29T02:24:25;17.20;99.90
41344;DHT22;27089;50.022;7.604;2022-07-29T02:26:53;17.10;99.90
41344;DHT22;27089;50.022;7.604;2022-07-29T02:29:25;16.90;99.90
41344;DHT22;27089;50.022;7.604;2022-07-29T02:31:55;16.80;99.90
41344;DHT22;27089;50.022;7.604;2022-07-29T02:34:25;16.70;99.90
41344;DHT22;27089;50.022;7.604;2022-07-29T02:36:52;16.70;99.90
41344;DHT22;27089;50.022;7.604;2022-07-29T02:39:21;16.70;99.90
41344;DHT22;27089;50.022;7.604;2022-07-29T02:41:52;16.70;99.90
41344;DHT22;27089;50.022;7.604;2022-07-29T02:44:20;16.70;99.90
41344;DHT22;27089;50.022;7.604;2022-07-29T02:46:50;16.70;99.90
41344;DHT22;27089;50.022;7.604;2022-07-29T02:49:34;16.80;99.90
41344;DHT22;27089;50.022;7.604;2022-07-29T02:52:04;16.80;99.90
41344;DHT22;27089;50.022;7.604;2022-07-29T02:54:38;16.90;99.90
41344;DHT22;27089;50.022;7.604;2022-07-29T02:57:20;16.90;99.90
41344;DHT22;27089;50.022;7.604;2022-07-29T02:59:51;16.90;99.90
41344;DHT22;27089;50.022;7.604;2022-07-29T03:02:20;16.60;99.90
41344;DHT22;27089;50.022;7.604;2022-07-29T03:04:50;16.40;99.90
41344;DHT22;27089;50.022;7.604;2022-07-29T03:07:20;16.30;99.90
41344;DHT22;27089;50.022;7.604;2022-07-29T03:09:48;16.20;99.90
41344;DHT22;27089;50.022;7.604;2022-07-29T03:12:16;16.00;99.90
41344;DHT22;27089;50.022;7.604;2022-07-29T03:14:43;15.80;99.90
41344;DHT22;27089;50.022;7.604;2022-07-29T03:17:12;15.70;99.90
41344;DHT22;27089;50.022;7.604;2022-07-29T03:19:39;15.70;99.90
41344;DHT22;27089;50.022;7.604;2022-07-29T03:22:08;15.70;99.90
41344;DHT22;27089;50.022;7.604;2022-07-29T03:24:36;15.70;99.90
41344;DHT22;27089;50.022;7.604;2022-07-29T03:27:04;15.70;99.90
41344;DHT22;27089;50.022;7.604;2022-07-29T03:29:32;15.60;99.90
41344;DHT22;27089;50.022;7.604;2022-07-29T03:31:59;15.60;99.90
41344;DHT22;27089;50.022;7.604;2022-07-29T03:34:26;15.60;99.90
41344;DHT22;27089;50.022;7.604;2022-07-29T03:36:53;15.50;99.90
41344;DHT22;27089;50.022;7.604;2022-07-29T03:39:24;15.40;99.90
41344;DHT22;27089;50.022;7.604;2022-07-29T03:41:55;15.20;99.90
41344;DHT22;27089;50.022;7.604;2022-07-29T03:44:24;14.90;99.90
41344;DHT22;27089;50.022;7.604;2022-07-29T03:46:54;14.80;99.90
41344;DHT22;27089;50.022;7.604;2022-07-29T03:49:23;14.80;99.90
41344;DHT22;27089;50.022;7.604;2022-07-29T03:51:51;14.80;99.90
41344;DHT22;27089;50.022;7.604;2022-07-29T03:54:18;14.90;99.90
41344;DHT22;27089;50.022;7.604;2022-07-29T03:56:48;15.00;99.90
41344;DHT22;27089;50.022;7.604;2022-07-29T03:59:17;15.00;99.90
41344;DHT22;27089;50.022;7.604;2022-07-29T04:01:46;14.90;99.90
41344;DHT22;27089;50.022;7.604;2022-07-29T04:04:14;14.80;99.90
41344;DHT22;27089;50.022;7.604;2022-07-29T04:06:43;14.70;99.90
41344;DHT22;27089;50.022;7.604;2022-07-29T04:09:11;14.70;99.90
41344;DHT22;27089;50.022;7.604;2022-07-29T04:11:39;14.80;99.90
41344;DHT22;27089;50.022;7.604;2022-07-29T04:14:08;14.80;99.90
41344;DHT22;27089;50.022;7.604;2022-07-29T04:16:35;14.80;99.90
41344;DHT22;27089;50.022;7.604;2022-07-29T04:19:02;14.80;99.90
41344;DHT22;27089;50.022;7.604;2022-07-29T04:21:29;14.80;99.90
41344;DHT22;27089;50.022;7.604;2022-07-29T04:23:56;14.70;99.90
41344;DHT22;27089;50.022;7.604;2022-07-29T04:26:24;14.70;99.90
41344;DHT22;27089;50.022;7.604;2022-07-29T04:28:51;14.70;99.90
41344;DHT22;27089;50.022;7.604;2022-07-29T04:31:19;14.60;99.90
41344;DHT22;27089;50.022;7.604;2022-07-29T04:33:46;14.60;99.90
41344;DHT22;27089;50.022;7.604;2022-07-29T04:36:13;14.50;99.90
41344;DHT22;27089;50.022;7.604;2022-07-29T04:38:40;14.50;99.90
41344;DHT22;27089;50.022;7.604;2022-07-29T04:41:07;14.60;99.90
41344;DHT22;27089;50.022;7.604;2022-07-29T04:43:35;14.70;99.90
41344;DHT22;27089;50.022;7.604;2022-07-29T04:46:03;14.80;99.90
41344;DHT22;27089;50.022;7.604;2022-07-29T04:48:31;15.00;99.90
41344;DHT22;27089;50.022;7.604;2022-07-29T04:50:58;15.10;99.90
41344;DHT22;27089;50.022;7.604;2022-07-29T04:53:25;15.20;99.90
41344;DHT22;27089;50.022;7.604;2022-07-29T04:55:52;15.30;99.90
41344;DHT22;27089;50.022;7.604;2022-07-29T04:58:19;15.40;99.90
41344;DHT22;27089;50.022;7.604;2022-07-29T05:00:48;15.40;99.90
41344;DHT22;27089;50.022;7.604;2022-07-29T05:03:15;15.60;99.90
41344;DHT22;27089;50.022;7.604;2022-07-29T05:05:44;15.70;99.90
41344;DHT22;27089;50.022;7.604;2022-07-29T05:08:11;15.70;99.90
41344;DHT22;27089;50.022;7.604;2022-07-29T05:10:38;15.80;99.90
41344;DHT22;27089;50.022;7.604;2022-07-29T05:13:05;16.00;99.90
41344;DHT22;27089;50.022;7.604;2022-07-29T05:15:33;16.20;99.90
41344;DHT22;27089;50.022;7.604;2022-07-29T05:18:00;16.40;99.90
41344;DHT22;27089;50.022;7.604;2022-07-29T05:20:27;16.50;99.90
41344;DHT22;27089;50.022;7.604;2022-07-29T05:22:57;16.70;99.90
41344;DHT22;27089;50.022;7.604;2022-07-29T05:25:24;16.80;99.90
41344;DHT22;27089;50.022;7.604;2022-07-29T05:27:51;16.90;99.90
41344;DHT22;27089;50.022;7.604;2022-07-29T05:30:19;16.80;99.90
41344;DHT22;27089;50.022;7.604;2022-07-29T05:32:46;16.90;99.90
41344;DHT22;27089;50.022;7.604;2022-07-29T05:35:14;17.00;99.90
41344;DHT22;27089;50.022;7.604;2022-07-29T05:37:41;17.20;99.90
41344;DHT22;27089;50.022;7.604;2022-07-29T05:40:10;17.40;99.90
41344;DHT22;27089;50.022;7.604;2022-07-29T05:42:37;17.60;99.90
41344;DHT22;27089;50.022;7.604;2022-07-29T05:45:05;17.80;99.90
41344;DHT22;27089;50.022;7.604;2022-07-29T05:47:32;18.00;99.90
41344;DHT22;27089;50.022;7.604;2022-07-29T05:49:59;18.10;99.90
41344;DHT22;27089;50.022;7.604;2022-07-29T05:52:26;18.20;99.90
41344;DHT22;27089;50.022;7.604;2022-07-29T05:54:53;18.30;99.90
41344;DHT22;27089;50.022;7.604;2022-07-29T05:57:23;18.40;99.90
41344;DHT22;27089;50.022;7.604;2022-07-29T05:59:50;18.60;99.90
41344;DHT22;27089;50.022;7.604;2022-07-29T06:02:17;18.60;99.90
41344;DHT22;27089;50.022;7.604;2022-07-29T06:04:44;18.70;99.90
41344;DHT22;27089;50.022;7.604;2022-07-29T06:07:11;18.80;99.90
41344;DHT22;27089;50.022;7.604;2022-07-29T06:09:39;18.80;99.90
41344;DHT22;27089;50.022;7.604;2022-07-29T06:12:06;18.90;99.90
41344;DHT22;27089;50.022;7.604;2022-07-29T06:14:35;19.00;99.90
41344;DHT22;27089;50.022;7.604;2022-07-29T06:17:03;19.00;99.90
41344;DHT22;27089;50.022;7.604;2022-07-29T06:19:31;19.10;99.90
41344;DHT22;27089;50.022;7.604;2022-07-29T06:22:00;19.10;99.90
41344;DHT22;27089;50.022;7.604;2022-07-29T06:24:27;19.20;99.90
41344;DHT22;27089;50.022;7.604;2022-07-29T06:26:54;19.20;99.90
41344;DHT22;27089;50.022;7.604;2022-07-29T06:29:21;19.30;99.90
41344;DHT22;27089;50.022;7.604;2022-07-29T06:31:50;19.30;99.90
41344;DHT22;27089;50.022;7.604;2022-07-29T06:34:17;19.40;99.90
41344;DHT22;27089;50.022;7.604;2022-07-29T06:36:45;19.50;99.90
41344;DHT22;27089;50.022;7.604;2022-07-29T06:39:12;19.60;99.90
41344;DHT22;27089;50.022;7.604;2022-07-29T06:41:39;19.60;99.90
41344;DHT22;27089;50.022;7.604;2022-07-29T06:44:06;19.60;99.90
41344;DHT22;27089;50.022;7.604;2022-07-29T06:46:33;19.70;99.90
41344;DHT22;27089;50.022;7.604;2022-07-29T06:49:01;19.80;99.90
41344;DHT22;27089;50.022;7.604;2022-07-29T06:51:28;19.80;99.90
41344;DHT22;27089;50.022;7.604;2022-07-29T06:53:55;19.90;99.90
41344;DHT22;27089;50.022;7.604;2022-07-29T06:56:23;20.10;99.90
41344;DHT22;27089;50.022;7.604;2022-07-29T06:58:50;20.30;99.90
41344;DHT22;27089;50.022;7.604;2022-07-29T07:01:17;20.40;99.90
41344;DHT22;27089;50.022;7.604;2022-07-29T07:03:45;20.60;99.90
41344;DHT22;27089;50.022;7.604;2022-07-29T07:06:13;20.60;99.90
41344;DHT22;27089;50.022;7.604;2022-07-29T07:08:40;20.80;99.90
41344;DHT22;27089;50.022;7.604;2022-07-29T07:11:08;20.90;99.90
41344;DHT22;27089;50.022;7.604;2022-07-29T07:13:35;20.90;99.90
41344;DHT22;27089;50.022;7.604;2022-07-29T07:16:02;21.00;99.90
41344;DHT22;27089;50.022;7.604;2022-07-29T07:18:29;21.20;99.90
41344;DHT22;27089;50.022;7.604;2022-07-29T07:20:57;21.20;99.90
41344;DHT22;27089;50.022;7.604;2022-07-29T07:23:26;21.30;99.90
41344;DHT22;27089;50.022;7.604;2022-07-29T07:25:53;21.60;99.90
41344;DHT22;27089;50.022;7.604;2022-07-29T07:28:20;21.70;99.90
41344;DHT22;27089;50.022;7.604;2022-07-29T07:30:47;21.90;99.90
41344;DHT22;27089;50.022;7.604;2022-07-29T07:33:14;22.10;99.90
41344;DHT22;27089;50.022;7.604;2022-07-29T07:35:41;22.30;99.90
41344;DHT22;27089;50.022;7.604;2022-07-29T07:38:09;22.40;99.90
41344;DHT22;27089;50.022;7.604;2022-07-29T07:40:39;22.50;99.90
41344;DHT22;27089;50.022;7.604;2022-07-29T07:43:06;22.50;99.90
41344;DHT22;27089;50.022;7.604;2022-07-29T07:45:33;22.60;99.90
41344;DHT22;27089;50.022;7.604;2022-07-29T07:48:03;22.60;99.90
41344;DHT22;27089;50.022;7.604;2022-07-29T07:50:30;22.70;99.90
41344;DHT22;27089;50.022;7.604;2022-07-29T07:52:57;22.80;99.90
41344;DHT22;27089;50.022;7.604;2022-07-29T07:55:24;22.80;99.90
41344;DHT22;27089;50.022;7.604;2022-07-29T07:57:53;22.80;99.90
41344;DHT22;27089;50.022;7.604;2022-07-29T08:00:21;22.50;99.90
41344;DHT22;27089;50.022;7.604;2022-07-29T08:02:48;22.50;99.90
41344;DHT22;27089;50.022;7.604;2022-07-29T08:05:15;22.70;99.90
41344;DHT22;27089;50.022;7.604;2022-07-29T08:07:45;22.90;99.90
41344;DHT22;27089;50.022;7.604;2022-07-29T08:10:12;23.20;99.90
41344;DHT22;27089;50.022;7.604;2022-07-29T08:12:40;23.40;99.90
41344;DHT22;27089;50.022;7.604;2022-07-29T08:15:09;23.30;99.90
41344;DHT22;27089;50.022;7.604;2022-07-29T08:17:36;23.40;99.90
41344;DHT22;27089;50.022;7.604;2022-07-29T08:20:03;23.50;99.90
41344;DHT22;27089;50.022;7.604;2022-07-29T08:22:31;23.50;99.90
41344;DHT22;27089;50.022;7.604;2022-07-29T08:24:58;23.40;99.90
41344;DHT22;27089;50.022;7.604;2022-07-29T08:27:25;23.50;99.90
41344;DHT22;27089;50.022;7.604;2022-07-29T08:29:53;23.50;99.90
41344;DHT22;27089;50.022;7.604;2022-07-29T08:32:22;23.50;99.90
41344;DHT22;27089;50.022;7.604;2022-07-29T08:34:49;23.50;99.90
41344;DHT22;27089;50.022;7.604;2022-07-29T08:37:16;23.50;99.90
41344;DHT22;27089;50.022;7.604;2022-07-29T08:39:43;23.60;99.90
41344;DHT22;27089;50.022;7.604;2022-07-29T08:42:11;23.80;99.90
41344;DHT22;27089;50.022;7.604;2022-07-29T08:44:38;23.80;99.90
41344;DHT22;27089;50.022;7.604;2022-07-29T08:47:06;23.90;99.90
41344;DHT22;27089;50.022;7.604;2022-07-29T08:49:34;24.00;99.90
41344;DHT22;27089;50.022;7.604;2022-07-29T08:52:02;24.20;99.90
41344;DHT22;27089;50.022;7.604;2022-07-29T08:54:30;24.40;99.90
41344;DHT22;27089;50.022;7.604;2022-07-29T08:56:58;24.50;99.70
41344;DHT22;27089;50.022;7.604;2022-07-29T08:59:27;24.40;99.70
41344;DHT22;27089;50.022;7.604;2022-07-29T09:01:57;24.40;99.90
41344;DHT22;27089;50.022;7.604;2022-07-29T09:04:29;24.30;99.90
41344;DHT22;27089;50.022;7.604;2022-07-29T09:07:00;24.40;99.80
41344;DHT22;27089;50.022;7.604;2022-07-29T09:09:30;24.40;99.90
41344;DHT22;27089;50.022;7.604;2022-07-29T09:11:59;24.50;99.90
41344;DHT22;27089;50.022;7.604;2022-07-29T09:14:26;24.80;99.60
41344;DHT22;27089;50.022;7.604;2022-07-29T09:16:54;24.80;98.70
41344;DHT22;27089;50.022;7.604;2022-07-29T09:19:24;24.90;99.30
41344;DHT22;27089;50.022;7.604;2022-07-29T09:21:52;24.90;98.70
41344;DHT22;27089;50.022;7.604;2022-07-29T09:24:27;24.80;98.90
41344;DHT22;27089;50.022;7.604;2022-07-29T09:27:03;25.10;98.90
41344;DHT22;27089;50.022;7.604;2022-07-29T09:29:34;25.60;98.10
41344;DHT22;27089;50.022;7.604;2022-07-29T09:32:06;26.10;97.70
41344;DHT22;27089;50.022;7.604;2022-07-29T09:34:36;26.20;97.10
41344;DHT22;27089;50.022;7.604;2022-07-29T09:37:03;26.50;96.50
41344;DHT22;27089;50.022;7.604;2022-07-29T09:39:33;26.70;96.00
41344;DHT22;27089;50.022;7.604;2022-07-29T09:42:03;26.90;95.00
41344;DHT22;27089;50.022;7.604;2022-07-29T09:44:44;27.20;95.20
41344;DHT22;27089;50.022;7.604;2022-07-29T09:47:11;27.70;94.80
41344;DHT22;27089;50.022;7.604;2022-07-29T09:49:54;28.30;93.70
41344;DHT22;27089;50.022;7.604;2022-07-29T09:52:25;29.30;92.20
41344;DHT22;27089;50.022;7.604;2022-07-29T09:55:04;29.40;90.90
41344;DHT22;27089;50.022;7.604;2022-07-29T09:57:31;29.50;90.20
41344;DHT22;27089;50.022;7.604;2022-07-29T10:00:00;29.20;90.30
41344;DHT22;27089;50.022;7.604;2022-07-29T10:02:31;29.00;90.70
41344;DHT22;27089;50.022;7.604;2022-07-29T10:04:59;28.70;90.80
41344;DHT22;27089;50.022;7.604;2022-07-29T10:07:26;28.80;91.10
41344;DHT22;27089;50.022;7.604;2022-07-29T10:09:56;29.00;90.30
41344;DHT22;27089;50.022;7.604;2022-07-29T10:12:24;29.40;89.70
41344;DHT22;27089;50.022;7.604;2022-07-29T10:14:51;29.90;88.90
41344;DHT22;27089;50.022;7.604;2022-07-29T10:17:18;30.10;87.50
41344;DHT22;27089;50.022;7.604;2022-07-29T10:19:46;29.80;86.90
41344;DHT22;27089;50.022;7.604;2022-07-29T10:22:14;29.50;87.50
41344;DHT22;27089;50.022;7.604;2022-07-29T10:24:41;29.20;87.80
41344;DHT22;27089;50.022;7.604;2022-07-29T10:27:10;29.10;90.20
41344;DHT22;27089;50.022;7.604;2022-07-29T10:29:37;29.20;89.30
41344;DHT22;27089;50.022;7.604;2022-07-29T10:32:27;29.40;89.60
41344;DHT22;27089;50.022;7.604;2022-07-29T10:38:24;29.30;87.60
41344;DHT22;27089;50.022;7.604;2022-07-29T10:40:57;29.20;89.00
41344;DHT22;27089;50.022;7.604;2022-07-29T10:43:46;28.90;88.80
41344;DHT22;27089;50.022;7.604;2022-07-29T10:46:14;28.70;89.40
41344;DHT22;27089;50.022;7.604;2022-07-29T10:49:04;28.70;89.40
41344;DHT22;27089;50.022;7.604;2022-07-29T10:51:56;28.40;89.50
41344;DHT22;27089;50.022;7.604;2022-07-29T10:54:44;28.10;90.10
41344;DHT22;27089;50.022;7.604;2022-07-29T10:57:26;28.00;90.90
41344;DHT22;27089;50.022;7.604;2022-07-29T11:00:26;27.90;88.70
41344;DHT22;27089;50.022;7.604;2022-07-29T11:02:55;27.60;90.20
41344;DHT22;27089;50.022;7.604;2022-07-29T11:05:23;27.50;90.50
41344;DHT22;27089;50.022;7.604;2022-07-29T11:08:17;27.30;90.10
41344;DHT22;27089;50.022;7.604;2022-07-29T11:10:47;27.30;91.60
41344;DHT22;27089;50.022;7.604;2022-07-29T11:13:45;27.20;91.70
41344;DHT22;27089;50.022;7.604;2022-07-29T11:16:14;27.30;92.10
41344;DHT22;27089;50.022;7.604;2022-07-29T11:21:45;27.40;91.80
41344;DHT22;27089;50.022;7.604;2022-07-29T11:24:16;27.30;91.60
41344;DHT22;27089;50.022;7.604;2022-07-29T11:26:43;27.20;91.30
41344;DHT22;27089;50.022;7.604;2022-07-29T11:29:19;27.00;92.20
41344;DHT22;27089;50.022;7.604;2022-07-29T11:31:50;27.00;92.50
41344;DHT22;27089;50.022;7.604;2022-07-29T11:34:23;27.00;92.60
41344;DHT22;27089;50.022;7.604;2022-07-29T11:37:18;26.90;92.70
41344;DHT22;27089;50.022;7.604;2022-07-29T11:40:05;26.90;92.80
41344;DHT22;27089;50.022;7.604;2022-07-29T11:42:47;26.80;92.20
41344;DHT22;27089;50.022;7.604;2022-07-29T11:45:16;26.70;93.10
41344;DHT22;27089;50.022;7.604;2022-07-29T11:47:50;26.70;93.00
41344;DHT22;27089;50.022;7.604;2022-07-29T11:50:30;26.70;93.40
41344;DHT22;27089;50.022;7.604;2022-07-29T11:52:58;26.70;93.40
41344;DHT22;27089;50.022;7.604;2022-07-29T11:55:25;26.70;93.20
41344;DHT22;27089;50.022;7.604;2022-07-29T11:57:54;26.60;93.90
41344;DHT22;27089;50.022;7.604;2022-07-29T12:00:28;26.60;93.90
41344;DHT22;27089;50.022;7.604;2022-07-29T12:02:58;26.60;93.70
41344;DHT22;27089;50.022;7.604;2022-07-29T12:05:34;26.50;94.20
41344;DHT22;27089;50.022;7.604;2022-07-29T12:08:06;26.50;93.40
41344;DHT22;27089;50.022;7.604;2022-07-29T12:10:33;26.50;94.10
41344;DHT22;27089;50.022;7.604;2022-07-29T12:13:00;26.60;94.10
41344;DHT22;27089;50.022;7.604;2022-07-29T12:15:27;26.60;93.90
41344;DHT22;27089;50.022;7.604;2022-07-29T12:17:56;26.60;93.90
41344;DHT22;27089;50.022;7.604;2022-07-29T12:20:24;26.90;94.00
41344;DHT22;27089;50.022;7.604;2022-07-29T12:22:52;27.30;93.50
41344;DHT22;27089;50.022;7.604;2022-07-29T12:25:21;27.60;93.10
41344;DHT22;27089;50.022;7.604;2022-07-29T12:27:59;27.70;92.30
41344;DHT22;27089;50.022;7.604;2022-07-29T12:30:35;27.70;92.40
41344;DHT22;27089;50.022;7.604;2022-07-29T12:33:16;27.50;91.90
41344;DHT22;27089;50.022;7.604;2022-07-29T12:35:45;27.50;91.40
41344;DHT22;27089;50.022;7.604;2022-07-29T12:38:13;27.40;92.10
41344;DHT22;27089;50.022;7.604;2022-07-29T12:40:40;27.30;92.50
41344;DHT22;27089;50.022;7.604;2022-07-29T12:43:09;27.20;91.60
41344;DHT22;27089;50.022;7.604;2022-07-29T12:45:37;27.20;91.80
41344;DHT22;27089;50.022;7.604;2022-07-29T12:48:05;27.20;92.20
41344;DHT22;27089;50.022;7.604;2022-07-29T12:50:36;27.10;91.60
41344;DHT22;27089;50.022;7.604;2022-07-29T12:53:11;26.90;92.00
41344;DHT22;27089;50.022;7.604;2022-07-29T12:55:40;26.60;91.80
41344;DHT22;27089;50.022;7.604;2022-07-29T12:58:08;26.40;92.10
41344;DHT22;27089;50.022;7.604;2022-07-29T13:00:35;26.40;92.20
41344;DHT22;27089;50.022;7.604;2022-07-29T13:03:02;26.50;92.00
41344;DHT22;27089;50.022;7.604;2022-07-29T13:05:41;26.60;92.20
41344;DHT22;27089;50.022;7.604;2022-07-29T13:08:13;26.70;92.40
41344;DHT22;27089;50.022;7.604;2022-07-29T13:10:41;26.80;92.40
41344;DHT22;27089;50.022;7.604;2022-07-29T13:13:09;26.80;92.10
41344;DHT22;27089;50.022;7.604;2022-07-29T13:15:37;26.70;91.90
41344;DHT22;27089;50.022;7.604;2022-07-29T13:18:05;26.70;91.90
41344;DHT22;27089;50.022;7.604;2022-07-29T13:20:32;26.70;91.90
41344;DHT22;27089;50.022;7.604;2022-07-29T13:23:01;26.70;93.00
41344;DHT22;27089;50.022;7.604;2022-07-29T13:25:29;26.80;92.80
41344;DHT22;27089;50.022;7.604;2022-07-29T13:27:57;26.80;93.00
41344;DHT22;27089;50.022;7.604;2022-07-29T13:30:25;26.90;92.90
41344;DHT22;27089;50.022;7.604;2022-07-29T13:32:52;26.90;92.80
41344;DHT22;27089;50.022;7.604;2022-07-29T13:35:20;26.90;92.90
41344;DHT22;27089;50.022;7.604;2022-07-29T13:37:47;26.90;91.90
41344;DHT22;27089;50.022;7.604;2022-07-29T13:40:16;26.90;92.30
41344;DHT22;27089;50.022;7.604;2022-07-29T13:42:43;26.90;92.20
41344;DHT22;27089;50.022;7.604;2022-07-29T13:45:10;26.80;92.60
41344;DHT22;27089;50.022;7.604;2022-07-29T13:47:37;26.90;92.90
41344;DHT22;27089;50.022;7.604;2022-07-29T13:50:06;26.90;91.90
41344;DHT22;27089;50.022;7.604;2022-07-29T13:52:36;26.70;91.30
41344;DHT22;27089;50.022;7.604;2022-07-29T13:55:04;26.60;91.60
41344;DHT22;27089;50.022;7.604;2022-07-29T13:57:33;26.50;92.00
41344;DHT22;27089;50.022;7.604;2022-07-29T14:00:01;26.60;92.50
41344;DHT22;27089;50.022;7.604;2022-07-29T14:02:28;26.60;92.60
41344;DHT22;27089;50.022;7.604;2022-07-29T14:04:55;26.70;92.40
41344;DHT22;27089;50.022;7.604;2022-07-29T14:07:22;26.70;91.60
41344;DHT22;27089;50.022;7.604;2022-07-29T14:09:50;26.60;91.50
41344;DHT22;27089;50.022;7.604;2022-07-29T14:12:17;26.60;91.80
41344;DHT22;27089;50.022;7.604;2022-07-29T14:14:45;26.70;92.70
41344;DHT22;27089;50.022;7.604;2022-07-29T14:17:13;26.80;93.00
41344;DHT22;27089;50.022;7.604;2022-07-29T14:19:40;26.80;92.70
41344;DHT22;27089;50.022;7.604;2022-07-29T14:22:08;26.90;92.70
41344;DHT22;27089;50.022;7.604;2022-07-29T14:24:35;27.00;92.50
41344;DHT22;27089;50.022;7.604;2022-07-29T14:27:03;27.00;92.30
41344;DHT22;27089;50.022;7.604;2022-07-29T14:29:30;27.20;92.60
41344;DHT22;27089;50.022;7.604;2022-07-29T14:31:58;27.30;91.60
41344;DHT22;27089;50.022;7.604;2022-07-29T14:34:25;27.50;92.00
41344;DHT22;27089;50.022;7.604;2022-07-29T14:36:53;27.60;91.40
41344;DHT22;27089;50.022;7.604;2022-07-29T14:39:21;27.70;90.70
41344;DHT22;27089;50.022;7.604;2022-07-29T14:41:48;27.70;90.00
41344;DHT22;27089;50.022;7.604;2022-07-29T14:44:16;27.60;89.40
41344;DHT22;27089;50.022;7.604;2022-07-29T14:46:43;27.50;89.50
41344;DHT22;27089;50.022;7.604;2022-07-29T14:49:12;27.30;90.40
41344;DHT22;27089;50.022;7.604;2022-07-29T14:51:39;27.20;90.40
41344;DHT22;27089;50.022;7.604;2022-07-29T14:54:06;27.10;90.90
41344;DHT22;27089;50.022;7.604;2022-07-29T14:56:33;26.90;90.70
41344;DHT22;27089;50.022;7.604;2022-07-29T14:59:00;26.80;91.10
41344;DHT22;27089;50.022;7.604;2022-07-29T15:01:27;26.70;91.30
41344;DHT22;27089;50.022;7.604;2022-07-29T15:03:54;26.70;91.90
41344;DHT22;27089;50.022;7.604;2022-07-29T15:06:22;26.70;91.10
41344;DHT22;27089;50.022;7.604;2022-07-29T15:08:50;26.60;91.20
41344;DHT22;27089;50.022;7.604;2022-07-29T15:11:17;26.60;91.80
41344;DHT22;27089;50.022;7.604;2022-07-29T15:13:44;26.50;92.30
41344;DHT22;27089;50.022;7.604;2022-07-29T15:16:10;26.40;92.50
41344;DHT22;27089;50.022;7.604;2022-07-29T15:18:38;26.40;92.70
41344;DHT22;27089;50.022;7.604;2022-07-29T15:21:05;26.30;92.70
41344;DHT22;27089;50.022;7.604;2022-07-29T15:23:34;26.20;92.50
41344;DHT22;27089;50.022;7.604;2022-07-29T15:26:02;26.30;93.70
41344;DHT22;27089;50.022;7.604;2022-07-29T15:28:29;26.40;95.70
41344;DHT22;27089;50.022;7.604;2022-07-29T15:30:56;26.30;99.90
41344;DHT22;27089;50.022;7.604;2022-07-29T15:33:23;26.00;99.90
41344;DHT22;27089;50.022;7.604;2022-07-29T15:35:51;25.70;99.90
41344;DHT22;27089;50.022;7.604;2022-07-29T15:38:18;25.30;99.90
41344;DHT22;27089;50.022;7.604;2022-07-29T15:40:46;25.10;99.90
41344;DHT22;27089;50.022;7.604;2022-07-29T15:43:13;24.90;99.90
41344;DHT22;27089;50.022;7.604;2022-07-29T15:45:41;24.60;99.90
41344;DHT22;27089;50.022;7.604;2022-07-29T15:48:29;24.40;99.90
41344;DHT22;27089;50.022;7.604;2022-07-29T15:50:57;24.00;99.90
41344;DHT22;27089;50.022;7.604;2022-07-29T15:53:24;23.80;99.90